Bellingham, WA

7:47 AM PDT on September 17, 2014 (GMT -0700)
Orcas Island | Change Station
CLOSE
Current Station
Airport
Location: Eastsound,
Elevation: 30 ft
Nearby Weather Stations
4.0 Earthquake: Seabeck, Washington (4 hours ago)  

Elev 30 ft 48.71 °N, 122.91 °W | Updated 12 minutes ago

Mostly Cloudy
Mostly Cloudy
57 °F
Feels Like 57 °F
N
0
Wind Variable Wind from North

Today
High -- | Low -- °F
--% Chance of Precip.
Yesterday
High -- | Low -- °F
Precip. -- in
6:49 AM 7:18 PM
Waning Crescent, 35% visible
Pressure 29.77 in
Visibility 9.0 miles
Clouds Clear
Dew Point 55 °F
Humidity 94%
Rainfall 0.00 in
Snow Depth 0 in , 0 in , 2 in
UV 0 out of 12
Pollen 1.40 out of 12
PM2.5 Moderate
Flu Activity Not available.
METAR KORS 171435Z AUTO 00000KT 9SM -RA CLR 14/13 A2977 RMK AO2

More Conditions Fewer Conditions

Pressure 29.77 in
Visibility 9.0 miles
Clouds Clear
Dew Point 55 °F
Humidity 94%
Rainfall 0.00 in
Snow Depth 0 in , 0 in , 2 in
UV 0 out of 12
Pollen 1.40 out of 12
PM2.5 Moderate
Flu Activity Not available.
METAR KORS 171435Z AUTO 00000KT 9SM -RA CLR 14/13 A2977 RMK AO2

More Conditions Fewer Conditions

10-Day Weather Forecast

Almanac

Astronomy

Sep. 17, 2014 Rise Set
Actual Time 6:49 AM PDT 7:18 PM PDT
Civil Twilight 6:18 AM PDT 7:49 PM PDT
Nautical Twilight 5:40 AM PDT 8:27 PM PDT
Astronomical Twilight 5:01 AM PDT 9:06 PM PDT
Moon 12:33 AM PDT 3:52 PM PDT
Length of Visible Light 13h 31m
Length of Day
12h 28m
Tomorrow will be 3m 32s shorter.
Waning Crescent, 35% of the Moon is Illuminated
Today
Waning Crescent
Sep 24
New
Oct 1
First Quarter
Oct 8
Full
Oct 15
Last Quarter

Today's Extremes

State Highs State Lows

Community

WunderPhotos

Upload Photos

1,754,060 photos uploaded!

WunderBlogs® & News

By Dr. Jeff Masters
Director of Meteorology, Weather Underground
By Kari Strenfel
Meteorologist, Weather Underground
By Christopher C. Burt
Weather Historian, Weather Underground
September 17, 2014
September 17, 2014
September 17, 2014

Nearby

Air Quality

  Air Quality AQ Index Pollutant
Yesterday Good
PM2.5
Yesterday Good
OZONE
Current Moderate
PM2.5
Tuesday Good
OZONE
Tuesday Good
PM2.5
Wednesday Good
OZONE
Wednesday Good
PM2.5
Thursday Good
OZONE
Thursday Good
PM2.5
Friday Good
OZONE
Friday Good
PM2.5
Saturday Good
OZONE
Saturday Good
PM2.5

Snow Depth

Station Depth Elevation
Park Creek Ridge 0 in 4600 ft
June Lake 0 in 3340 ft
Olallie Meadows 2 in 3700 ft
Spirit Lake 0 in 3120 ft
Alpine Meadows 0 in 3500 ft

Earthquake Activity

City Distance Mag. Time & Date
Seabeck, Washington 84 miles 4.0 3:06 AM PDT
2014-09-17
Minimum magnitude displayed is 2.5.

Coastal Water Temperatures

Place Temperature
Port Townsend, WA 53.1 °F
Friday Harbor, WA 53.1 °F
Port Angeles, WA 51.1 °F

Nearby Weather Stations